createdAt,value
2023-03-05T00:01:29.319Z,95.67
2023-03-05T00:03:58.091Z,95.48
2023-03-05T00:06:27.732Z,94.77
2023-03-05T00:08:56.954Z,94.18
2023-03-05T00:11:28.455Z,95.24
2023-03-05T00:13:57.307Z,94.79
2023-03-05T00:16:27.625Z,94.92
2023-03-05T00:18:56.450Z,94.78
2023-03-05T00:21:27.719Z,95.09
2023-03-05T00:23:57.134Z,95.83
2023-03-05T00:26:27.361Z,95.67
2023-03-05T00:28:56.207Z,95.64
2023-03-05T00:31:26.973Z,96.42
2023-03-05T00:33:55.996Z,96.64
2023-03-05T00:36:25.253Z,97.24
2023-03-05T00:38:53.584Z,96.74
2023-03-05T00:41:21.878Z,96.32
2023-03-05T00:43:49.695Z,96.74
2023-03-05T00:46:18.380Z,95.98
2023-03-05T00:48:47.392Z,95.38
2023-03-05T00:51:15.996Z,95.55
2023-03-05T00:53:43.883Z,96.43
2023-03-05T00:56:11.886Z,95.44
2023-03-05T00:58:39.847Z,94.95
2023-03-05T01:01:08.671Z,95.76
2023-03-05T01:03:36.737Z,96.59
2023-03-05T01:06:08.185Z,95.04
2023-03-05T01:08:36.175Z,96.16
2023-03-05T01:11:08.498Z,96.22
2023-03-05T01:13:36.426Z,96.51
2023-03-05T01:16:05.163Z,96.93
2023-03-05T01:18:33.174Z,96.47
2023-03-05T01:21:00.892Z,96.95
2023-03-05T01:23:28.287Z,96.76
2023-03-05T01:25:57.902Z,97.14
2023-03-05T01:28:26.327Z,97.43
2023-03-05T01:30:54.370Z,97.12
2023-03-05T01:33:21.705Z,97.85
2023-03-05T01:35:50.392Z,97.90
2023-03-05T01:38:19.370Z,98.50
2023-03-05T01:40:47.452Z,98.39
2023-03-05T01:43:28.281Z,98.76
2023-03-05T01:46:16.916Z,98.60
2023-03-05T01:49:16.314Z,99.44
2023-03-05T01:52:18.145Z,99.92
2023-03-05T01:55:01.942Z,100.00
2023-03-05T01:57:34.226Z,100.00
2023-03-05T02:00:07.198Z,100.00
2023-03-05T02:02:42.701Z,100.00
2023-03-05T02:05:13.750Z,100.00
2023-03-05T02:07:43.264Z,100.00
2023-03-05T02:10:22.520Z,100.00
2023-03-05T02:12:50.849Z,100.00
2023-03-05T02:15:18.608Z,100.00
2023-03-05T02:17:46.385Z,100.00
2023-03-05T02:20:17.825Z,100.00
2023-03-05T02:22:45.891Z,100.00
2023-03-05T02:25:27.755Z,100.00
2023-03-05T02:28:00.585Z,100.00
2023-03-05T02:30:29.013Z,100.00
2023-03-05T02:32:57.404Z,100.00
2023-03-05T02:35:25.480Z,100.00
2023-03-05T02:37:53.232Z,100.00
2023-03-05T02:40:20.606Z,100.00
2023-03-05T02:42:49.337Z,100.00
2023-03-05T02:45:17.582Z,100.00
2023-03-05T02:47:45.166Z,100.00
2023-03-05T02:50:12.690Z,100.00
2023-03-05T02:52:40.762Z,100.00
2023-03-05T02:55:13.413Z,100.00
2023-03-05T02:57:42.227Z,100.00
2023-03-05T03:00:10.696Z,100.00
2023-03-05T03:02:39.292Z,100.00
2023-03-05T03:05:07.629Z,100.00
2023-03-05T03:07:36.710Z,100.00
2023-03-05T03:10:05.426Z,100.00
2023-03-05T03:12:37.739Z,100.00
2023-03-05T03:15:05.908Z,100.00
2023-03-05T03:17:35.590Z,100.00
2023-03-05T03:20:04.886Z,100.00
2023-03-05T03:22:32.914Z,100.00
2023-03-05T03:25:01.384Z,100.00
2023-03-05T03:27:29.024Z,100.00
2023-03-05T03:29:56.367Z,100.00
2023-03-05T03:32:24.176Z,100.00
2023-03-05T03:34:51.721Z,100.00
2023-03-05T03:37:19.551Z,100.00
2023-03-05T03:39:46.970Z,100.00
2023-03-05T03:42:18.018Z,100.00
2023-03-05T03:44:45.444Z,100.00
2023-03-05T03:47:13.203Z,100.00
2023-03-05T03:49:40.495Z,100.00
2023-03-05T03:52:08.516Z,100.00
2023-03-05T03:54:36.094Z,100.00
2023-03-05T03:57:04.050Z,100.00
2023-03-05T03:59:31.416Z,100.00
2023-03-05T04:01:59.089Z,100.00
2023-03-05T04:04:26.882Z,100.00
2023-03-05T04:06:54.647Z,100.00
2023-03-05T04:09:22.124Z,100.00
2023-03-05T04:11:49.937Z,100.00
2023-03-05T04:14:17.324Z,100.00
2023-03-05T04:16:44.989Z,100.00
2023-03-05T04:19:12.309Z,100.00
2023-03-05T04:21:40.345Z,100.00
2023-03-05T04:24:08.455Z,100.00
2023-03-05T04:26:36.278Z,100.00
2023-03-05T04:29:03.562Z,100.00
2023-03-05T04:31:31.339Z,100.00
2023-03-05T04:33:59.886Z,100.00
2023-03-05T04:36:27.769Z,100.00
2023-03-05T04:38:55.119Z,100.00
2023-03-05T04:41:22.992Z,100.00
2023-03-05T04:43:50.376Z,100.00
2023-03-05T04:46:18.250Z,100.00
2023-03-05T04:48:45.570Z,100.00
2023-03-05T04:51:13.224Z,100.00
2023-03-05T04:53:40.662Z,100.00
2023-03-05T04:56:08.644Z,100.00
2023-03-05T04:58:36.011Z,100.00
2023-03-05T05:01:05.310Z,100.00
2023-03-05T05:03:33.244Z,100.00
2023-03-05T05:06:01.791Z,100.00
2023-03-05T05:08:29.559Z,100.00
2023-03-05T05:11:05.514Z,100.00
2023-03-05T05:13:33.568Z,100.00
2023-03-05T05:16:01.350Z,100.00
2023-03-05T05:18:28.737Z,100.00
2023-03-05T05:20:56.522Z,100.00
2023-03-05T05:23:24.302Z,100.00
2023-03-05T05:26:00.016Z,100.00
2023-03-05T05:28:27.904Z,100.00
2023-03-05T05:30:55.855Z,100.00
2023-03-05T05:33:23.978Z,100.00
2023-03-05T05:35:51.863Z,100.00
2023-03-05T05:38:19.337Z,100.00
2023-03-05T05:40:46.969Z,100.00
2023-03-05T05:43:14.498Z,100.00
2023-03-05T05:45:42.377Z,100.00
2023-03-05T05:48:09.931Z,100.00
2023-03-05T05:50:39.574Z,100.00
2023-03-05T05:53:06.848Z,100.00
2023-03-05T05:55:34.428Z,100.00
2023-03-05T05:58:01.945Z,100.00
2023-03-05T06:00:29.618Z,100.00
2023-03-05T06:02:57.180Z,100.00
2023-03-05T06:05:25.043Z,100.00
2023-03-05T06:07:52.379Z,100.00
2023-03-05T06:10:20.385Z,100.00
2023-03-05T06:12:47.999Z,100.00
2023-03-05T06:15:15.647Z,100.00
2023-03-05T06:17:43.128Z,100.00
2023-03-05T06:20:11.775Z,100.00
2023-03-05T06:22:39.523Z,100.00
2023-03-05T06:25:08.626Z,100.00
2023-03-05T06:27:36.281Z,100.00
2023-03-05T06:30:05.564Z,100.00
2023-03-05T06:32:33.046Z,100.00
2023-03-05T06:35:00.778Z,99.95
2023-03-05T06:37:28.132Z,100.00
2023-03-05T06:39:55.716Z,100.00
2023-03-05T06:42:23.028Z,99.60
2023-03-05T06:44:50.590Z,99.47
2023-03-05T06:47:17.957Z,99.26
2023-03-05T06:49:45.442Z,99.08
2023-03-05T06:52:13.097Z,99.08
2023-03-05T06:54:40.819Z,98.60
2023-03-05T06:57:10.446Z,98.01
2023-03-05T06:59:38.326Z,98.84
2023-03-05T07:02:05.908Z,97.45
2023-03-05T07:04:33.701Z,96.90
2023-03-05T07:07:01.360Z,96.71
2023-03-05T07:09:29.255Z,98.10
2023-03-05T07:11:56.917Z,98.37
2023-03-05T07:14:24.447Z,98.17
2023-03-05T07:16:51.796Z,97.36
2023-03-05T07:19:19.613Z,98.62
2023-03-05T07:21:47.618Z,97.67
2023-03-05T07:24:15.294Z,97.23
2023-03-05T07:26:42.954Z,95.65
2023-03-05T07:29:10.878Z,95.05
2023-03-05T07:31:38.346Z,94.28
2023-03-05T07:34:06.680Z,93.26
2023-03-05T07:36:35.256Z,92.95
2023-03-05T07:39:05.105Z,94.29
2023-03-05T07:41:33.492Z,93.91
2023-03-05T07:44:01.702Z,94.66
2023-03-05T07:46:32.201Z,93.58
2023-03-05T07:49:00.708Z,91.75
2023-03-05T07:51:28.853Z,92.99
2023-03-05T07:53:59.063Z,92.43
2023-03-05T07:56:37.303Z,93.00
2023-03-05T07:59:07.259Z,93.32
2023-03-05T08:01:35.694Z,92.82
2023-03-05T08:04:04.596Z,93.69
2023-03-05T08:06:31.970Z,93.88
2023-03-05T08:09:00.595Z,92.83
2023-03-05T08:11:28.842Z,93.45
2023-03-05T08:13:59.824Z,93.78
2023-03-05T08:16:28.289Z,93.48
2023-03-05T08:18:57.635Z,92.49
2023-03-05T08:21:29.607Z,93.18
2023-03-05T08:23:57.947Z,92.31
2023-03-05T08:26:27.343Z,92.71
2023-03-05T08:28:55.631Z,91.93
2023-03-05T08:31:24.772Z,93.83
2023-03-05T08:33:55.294Z,93.46
2023-03-05T08:36:23.258Z,93.54
2023-03-05T08:38:51.561Z,93.17
2023-03-05T08:41:19.811Z,93.68
2023-03-05T08:43:48.598Z,94.84
2023-03-05T08:46:17.212Z,93.61
2023-03-05T08:48:45.760Z,93.56
2023-03-05T08:51:15.380Z,94.64
2023-03-05T08:53:45.312Z,94.91
2023-03-05T08:56:13.762Z,92.22
2023-03-05T08:58:41.434Z,93.55
2023-03-05T09:01:08.728Z,93.77
2023-03-05T09:03:36.896Z,93.63
2023-03-05T09:06:07.762Z,93.00
2023-03-05T09:08:36.408Z,94.38
2023-03-05T09:11:05.501Z,92.85
2023-03-05T09:13:33.756Z,92.55
2023-03-05T09:16:04.136Z,94.16
2023-03-05T09:18:32.451Z,94.31
2023-03-05T09:21:05.139Z,93.84
2023-03-05T09:23:33.153Z,94.05
2023-03-05T09:26:00.521Z,94.15
2023-03-05T09:28:28.425Z,92.62
2023-03-05T09:30:55.615Z,93.69
2023-03-05T09:33:23.668Z,93.16
2023-03-05T09:35:51.596Z,93.90
2023-03-05T09:38:19.638Z,93.43
2023-03-05T09:41:10.371Z,94.05
2023-03-05T09:44:03.949Z,94.70
2023-03-05T09:47:04.096Z,94.36
2023-03-05T09:49:57.553Z,93.11
2023-03-05T09:52:50.638Z,92.28
2023-03-05T09:55:21.514Z,94.86
2023-03-05T09:57:59.496Z,92.85
2023-03-05T10:00:32.948Z,93.20
2023-03-05T10:03:05.642Z,96.15
2023-03-05T10:05:44.120Z,92.77
2023-03-05T10:08:12.464Z,92.70
2023-03-05T10:10:52.677Z,92.32
2023-03-05T10:13:29.433Z,94.77
2023-03-05T10:16:06.841Z,95.13
2023-03-05T10:18:55.914Z,92.85
2023-03-05T10:21:45.463Z,93.38
2023-03-05T10:24:15.621Z,95.31
2023-03-05T10:26:59.984Z,93.39
2023-03-05T10:29:39.857Z,95.42
2023-03-05T10:32:35.876Z,96.01
2023-03-05T10:35:34.784Z,94.34
2023-03-05T10:38:16.250Z,95.71
2023-03-05T10:40:48.391Z,95.03
2023-03-05T10:43:51.748Z,94.93
2023-03-05T10:46:21.794Z,98.15
2023-03-05T10:48:53.873Z,99.43
2023-03-05T10:51:42.172Z,98.91
2023-03-05T10:54:19.519Z,99.69
2023-03-05T10:56:46.736Z,100.00
2023-03-05T10:59:14.328Z,100.00
2023-03-05T11:01:41.988Z,100.00
2023-03-05T11:04:30.281Z,100.00
2023-03-05T11:06:58.051Z,100.00
2023-03-05T11:09:29.484Z,100.00
2023-03-05T11:12:19.769Z,100.00
2023-03-05T11:15:07.924Z,100.00
2023-03-05T11:17:49.194Z,100.00
2023-03-05T11:20:36.006Z,100.00
2023-03-05T11:23:24.891Z,100.00
2023-03-05T11:26:15.598Z,100.00
2023-03-05T11:28:52.131Z,100.00
2023-03-05T11:31:21.973Z,100.00
2023-03-05T11:34:12.158Z,100.00
2023-03-05T11:37:03.821Z,100.00
2023-03-05T11:39:34.447Z,100.00
2023-03-05T11:42:06.913Z,100.00
2023-03-05T11:44:50.872Z,100.00
2023-03-05T11:47:36.175Z,100.00
2023-03-05T11:50:23.805Z,100.00
2023-03-05T11:53:09.776Z,100.00
2023-03-05T11:56:00.670Z,100.00
2023-03-05T11:58:49.587Z,100.00
2023-03-05T12:01:20.879Z,100.00
2023-03-05T12:03:50.519Z,100.00
2023-03-05T12:06:27.190Z,100.00
2023-03-05T12:08:58.717Z,100.00
2023-03-05T12:11:31.231Z,100.00
2023-03-05T12:14:24.825Z,100.00
2023-03-05T12:16:54.672Z,100.00
2023-03-05T12:20:00.234Z,100.00
2023-03-05T12:22:35.202Z,100.00
2023-03-05T12:25:29.412Z,100.00
2023-03-05T12:27:57.457Z,100.00
2023-03-05T12:30:48.865Z,100.00
2023-03-05T12:33:35.782Z,100.00
2023-03-05T12:36:22.799Z,100.00
2023-03-05T12:38:57.114Z,100.00
2023-03-05T12:41:27.431Z,100.00
2023-03-05T12:44:07.417Z,100.00
2023-03-05T12:46:42.739Z,100.00
2023-03-05T12:49:27.334Z,100.00
2023-03-05T12:52:00.165Z,100.00
2023-03-05T12:54:35.716Z,100.00
2023-03-05T12:57:07.176Z,100.00
2023-03-05T12:59:42.345Z,100.00
2023-03-05T13:02:36.718Z,100.00
2023-03-05T13:05:28.288Z,100.00
2023-03-05T13:08:21.832Z,100.00
2023-03-05T13:10:58.111Z,100.00
2023-03-05T13:13:27.588Z,100.00
2023-03-05T13:15:55.182Z,100.00
2023-03-05T13:18:31.143Z,100.00
2023-03-05T13:21:04.861Z,100.00
2023-03-05T13:23:34.218Z,100.00
2023-03-05T13:26:15.619Z,100.00
2023-03-05T13:28:45.208Z,100.00
2023-03-05T13:31:21.422Z,100.00
2023-03-05T13:33:54.847Z,100.00
2023-03-05T13:36:22.932Z,100.00
2023-03-05T13:38:51.125Z,100.00
2023-03-05T13:41:20.377Z,100.00
2023-03-05T13:43:58.285Z,100.00
2023-03-05T13:46:32.265Z,100.00
2023-03-05T13:49:23.113Z,100.00
2023-03-05T13:51:53.968Z,100.00
2023-03-05T13:54:23.375Z,100.00
2023-03-05T13:56:56.970Z,100.00
2023-03-05T13:59:30.955Z,100.00
2023-03-05T14:02:00.185Z,100.00
2023-03-05T14:04:39.117Z,100.00
2023-03-05T14:07:08.793Z,100.00
2023-03-05T14:09:39.452Z,100.00
2023-03-05T14:12:21.637Z,100.00
2023-03-05T14:14:49.311Z,100.00
2023-03-05T14:17:42.537Z,100.00
2023-03-05T14:20:13.245Z,100.00
2023-03-05T14:22:43.376Z,100.00
2023-03-05T14:25:42.430Z,100.00
2023-03-05T14:28:28.344Z,100.00
2023-03-05T14:30:57.058Z,100.00
2023-03-05T14:33:32.596Z,100.00
2023-03-05T14:36:01.163Z,100.00
2023-03-05T14:38:30.895Z,100.00
2023-03-05T14:40:58.677Z,100.00
2023-03-05T14:43:26.009Z,100.00
2023-03-05T14:45:53.861Z,100.00
2023-03-05T14:48:21.195Z,100.00
2023-03-05T14:50:57.102Z,100.00
2023-03-05T14:53:27.299Z,100.00
2023-03-05T14:55:57.067Z,100.00
2023-03-05T14:58:32.588Z,100.00
2023-03-05T15:01:00.431Z,100.00
2023-03-05T15:03:28.195Z,100.00
2023-03-05T15:05:57.519Z,100.00
2023-03-05T15:08:30.638Z,100.00
2023-03-05T15:10:59.769Z,100.00
2023-03-05T15:13:27.306Z,100.00
2023-03-05T15:15:55.490Z,100.00
2023-03-05T15:18:23.919Z,100.00
2023-03-05T15:20:55.514Z,100.00
2023-03-05T15:23:23.384Z,100.00
2023-03-05T15:25:51.302Z,100.00
2023-03-05T15:28:18.901Z,100.00
2023-03-05T15:30:47.465Z,100.00
2023-03-05T15:33:16.790Z,100.00
2023-03-05T15:35:45.144Z,100.00
2023-03-05T15:38:12.492Z,100.00
2023-03-05T15:40:40.854Z,100.00
2023-03-05T15:43:10.388Z,100.00
2023-03-05T15:45:39.380Z,100.00
2023-03-05T15:48:11.174Z,100.00
2023-03-05T15:50:43.660Z,100.00
2023-03-05T15:53:16.406Z,100.00
2023-03-05T15:55:46.438Z,100.00
2023-03-05T15:58:16.172Z,100.00
2023-03-05T16:00:44.620Z,100.00
2023-03-05T16:03:12.497Z,100.00
2023-03-05T16:05:40.352Z,100.00
2023-03-05T16:08:08.750Z,100.00
2023-03-05T16:10:40.159Z,100.00
2023-03-05T16:13:13.806Z,100.00
2023-03-05T16:15:42.136Z,100.00
2023-03-05T16:18:24.863Z,100.00
2023-03-05T16:20:57.079Z,100.00
2023-03-05T16:23:24.991Z,100.00
2023-03-05T16:25:52.799Z,100.00
2023-03-05T16:28:20.212Z,100.00
2023-03-05T16:30:55.875Z,100.00
2023-03-05T16:33:23.878Z,100.00
2023-03-05T16:36:11.588Z,100.00
2023-03-05T16:38:39.012Z,100.00
2023-03-05T16:41:08.867Z,100.00
2023-03-05T16:43:37.736Z,100.00
2023-03-05T16:46:06.298Z,100.00
2023-03-05T16:48:34.360Z,100.00
2023-03-05T16:51:02.880Z,100.00
2023-03-05T16:53:30.687Z,100.00
2023-03-05T16:55:59.100Z,100.00
2023-03-05T16:58:26.437Z,100.00
2023-03-05T17:00:54.120Z,100.00
2023-03-05T17:03:22.214Z,100.00
2023-03-05T17:05:49.935Z,100.00
2023-03-05T17:08:17.390Z,100.00
2023-03-05T17:10:45.769Z,100.00
2023-03-05T17:13:13.222Z,100.00
2023-03-05T17:18:10.256Z,100.00
2023-03-05T17:20:38.106Z,100.00
2023-03-05T17:23:05.561Z,100.00
2023-03-05T17:25:33.274Z,100.00
2023-03-05T17:28:00.713Z,100.00
2023-03-05T17:30:28.561Z,100.00
2023-03-05T17:32:56.002Z,100.00
2023-03-05T17:35:24.120Z,100.00
2023-03-05T17:37:53.743Z,100.00
2023-03-05T17:40:22.872Z,100.00
2023-03-05T17:42:50.454Z,100.00
2023-03-05T17:45:18.208Z,100.00
2023-03-05T17:47:45.488Z,100.00
2023-03-05T17:50:14.431Z,100.00
2023-03-05T17:52:41.987Z,100.00
2023-03-05T17:55:11.164Z,100.00
2023-03-05T17:57:41.663Z,100.00
2023-03-05T18:00:24.945Z,100.00
2023-03-05T18:02:52.507Z,100.00
2023-03-05T18:05:22.407Z,100.00
2023-03-05T18:07:50.475Z,100.00
2023-03-05T18:10:19.466Z,100.00
2023-03-05T18:12:47.098Z,100.00
2023-03-05T18:15:16.268Z,100.00
2023-03-05T18:17:44.258Z,100.00
2023-03-05T18:20:26.399Z,100.00
2023-03-05T18:22:54.330Z,100.00
2023-03-05T18:25:23.535Z,100.00
2023-03-05T18:27:50.906Z,100.00
2023-03-05T18:30:18.907Z,100.00
2023-03-05T18:32:47.793Z,100.00
2023-03-05T18:35:15.513Z,100.00
2023-03-05T18:37:42.915Z,100.00
2023-03-05T18:40:16.880Z,100.00
2023-03-05T18:42:46.288Z,100.00
2023-03-05T18:45:15.557Z,100.00
2023-03-05T18:47:43.348Z,100.00
2023-03-05T18:50:15.128Z,100.00
2023-03-05T18:52:43.075Z,100.00
2023-03-05T18:55:27.126Z,100.00
2023-03-05T18:57:55.262Z,100.00
2023-03-05T19:00:32.373Z,100.00
2023-03-05T19:03:00.302Z,100.00
2023-03-05T19:05:28.364Z,100.00
2023-03-05T19:07:56.604Z,100.00
2023-03-05T19:10:24.776Z,100.00
2023-03-05T19:13:08.163Z,100.00
2023-03-05T19:15:39.793Z,100.00
2023-03-05T19:18:07.232Z,100.00
2023-03-05T19:20:35.505Z,100.00
2023-03-05T19:23:05.763Z,100.00
2023-03-05T19:25:36.469Z,100.00
2023-03-05T19:28:04.348Z,100.00
2023-03-05T19:30:32.504Z,100.00
2023-03-05T19:33:04.012Z,100.00
2023-03-05T19:35:32.708Z,100.00
2023-03-05T19:38:03.440Z,100.00
2023-03-05T19:40:31.917Z,100.00
2023-03-05T19:43:02.583Z,100.00
2023-03-05T19:45:34.065Z,100.00
2023-03-05T19:48:01.667Z,100.00
2023-03-05T19:50:29.590Z,100.00
2023-03-05T19:52:57.573Z,100.00
2023-03-05T19:55:28.983Z,100.00
2023-03-05T19:57:57.361Z,100.00
2023-03-05T20:00:27.850Z,100.00
2023-03-05T20:02:55.273Z,100.00
2023-03-05T20:05:26.142Z,100.00
2023-03-05T20:07:54.149Z,100.00
2023-03-05T20:10:22.832Z,100.00
2023-03-05T20:12:51.442Z,100.00
2023-03-05T20:15:21.475Z,100.00
2023-03-05T20:17:49.285Z,100.00
2023-03-05T20:20:21.491Z,100.00
2023-03-05T20:22:49.506Z,100.00
2023-03-05T20:25:21.550Z,100.00
2023-03-05T20:27:52.126Z,100.00
2023-03-05T20:30:25.449Z,100.00
2023-03-05T20:32:55.341Z,100.00
2023-03-05T20:35:26.120Z,100.00
2023-03-05T20:38:17.940Z,100.00
2023-03-05T20:40:45.534Z,100.00
2023-03-05T20:43:13.042Z,100.00
2023-03-05T20:45:41.800Z,100.00
2023-03-05T20:48:12.600Z,100.00
2023-03-05T20:50:41.373Z,100.00
2023-03-05T20:53:10.768Z,100.00
2023-03-05T20:55:38.678Z,100.00
2023-03-05T20:58:06.335Z,100.00
2023-03-05T21:00:35.052Z,100.00
2023-03-05T21:03:06.471Z,100.00
2023-03-05T21:05:42.300Z,100.00
2023-03-05T21:08:10.530Z,100.00
2023-03-05T21:10:39.140Z,100.00
2023-03-05T21:13:06.597Z,100.00
2023-03-05T21:15:35.070Z,100.00
2023-03-05T21:18:09.042Z,100.00
2023-03-05T21:20:36.869Z,100.00
2023-03-05T21:23:04.247Z,100.00
2023-03-05T21:25:33.483Z,100.00
2023-03-05T21:28:07.287Z,100.00
2023-03-05T21:30:42.750Z,100.00
2023-03-05T21:33:13.946Z,100.00
2023-03-05T21:35:42.564Z,100.00
2023-03-05T21:38:10.272Z,100.00
2023-03-05T21:40:43.660Z,100.00
2023-03-05T21:43:12.431Z,100.00
2023-03-05T21:45:41.062Z,100.00
2023-03-05T21:48:09.454Z,100.00
2023-03-05T21:50:39.837Z,100.00
2023-03-05T21:53:08.087Z,100.00
2023-03-05T21:55:46.758Z,100.00
2023-03-05T21:58:14.932Z,100.00
2023-03-05T22:00:42.983Z,100.00
2023-03-05T22:03:10.476Z,100.00
2023-03-05T22:05:38.228Z,100.00
2023-03-05T22:08:05.667Z,100.00
2023-03-05T22:10:33.671Z,100.00
2023-03-05T22:13:02.396Z,100.00
2023-03-05T22:15:31.983Z,100.00
2023-03-05T22:18:00.161Z,100.00
2023-03-05T22:20:27.915Z,100.00
2023-03-05T22:22:55.460Z,100.00
2023-03-05T22:25:24.001Z,100.00
2023-03-05T22:27:51.525Z,100.00
2023-03-05T22:30:20.413Z,100.00
2023-03-05T22:32:47.667Z,100.00
2023-03-05T22:35:16.329Z,100.00
2023-03-05T22:37:44.257Z,100.00
2023-03-05T22:40:17.062Z,100.00
2023-03-05T22:42:44.852Z,100.00
2023-03-05T22:45:13.940Z,100.00
2023-03-05T22:47:41.280Z,100.00
2023-03-05T22:50:10.082Z,100.00
2023-03-05T22:52:37.514Z,100.00
2023-03-05T22:55:05.723Z,100.00
2023-03-05T22:57:33.277Z,100.00
2023-03-05T23:00:00.872Z,100.00
2023-03-05T23:02:28.306Z,100.00
2023-03-05T23:05:00.697Z,100.00
2023-03-05T23:07:30.530Z,100.00
2023-03-05T23:10:04.750Z,100.00
2023-03-05T23:12:33.911Z,100.00
2023-03-05T23:15:13.788Z,100.00
2023-03-05T23:17:41.295Z,100.00
2023-03-05T23:20:11.800Z,100.00
2023-03-05T23:22:40.505Z,100.00
2023-03-05T23:25:08.646Z,100.00
2023-03-05T23:27:35.972Z,100.00
2023-03-05T23:30:23.120Z,100.00
2023-03-05T23:32:52.784Z,100.00
2023-03-05T23:35:23.715Z,100.00
2023-03-05T23:37:52.202Z,100.00
2023-03-05T23:40:25.275Z,100.00
2023-03-05T23:42:53.228Z,100.00
2023-03-05T23:45:22.744Z,100.00
2023-03-05T23:47:51.336Z,100.00
2023-03-05T23:50:21.758Z,100.00
2023-03-05T23:52:50.265Z,100.00
2023-03-05T23:55:24.436Z,100.00
2023-03-05T23:57:52.185Z,100.00
